Time;durP1;ratioP1;P1;durP2;ratioP2;P2;SDS_P1;SDS_P2;PMS_P1;PMS_P2;Temp;Humidity;BMP_temperature;BMP_pressure;BME280_temperature;BME280_humidity;BME280_pressure;Samples;Min_cycle;Max_cycle;Signal;HPM_P1;HPM_P2
2022/07/29 00:01:26;;;;;;;1.00;0.70;;;;;;;15.22;100.00;100020.37;1724254;80;20966;-53
2022/07/29 00:03:52;;;;;;;2.35;0.80;;;;;;;15.18;100.00;100025.09;1721022;81;21567;-52
2022/07/29 00:06:20;;;;;;;0.80;0.68;;;;;;;15.14;100.00;100029.83;1675801;82;21715;-52
2022/07/29 00:08:47;;;;;;;3.83;0.80;;;;;;;15.11;100.00;100029.16;1715874;81;21089;-53
2022/07/29 00:11:15;;;;;;;2.72;0.70;;;;;;;15.10;100.00;100031.48;1719673;81;20969;-54
2022/07/29 00:13:43;;;;;;;1.25;0.60;;;;;;;15.07;100.00;100025.77;1727933;80;21439;-52
2022/07/29 00:16:11;;;;;;;0.90;0.70;;;;;;;15.07;100.00;100025.77;1740633;80;21061;-52
2022/07/29 00:18:37;;;;;;;1.10;0.70;;;;;;;15.09;100.00;100023.83;1737560;80;21059;-52
2022/07/29 00:21:04;;;;;;;1.95;0.90;;;;;;;15.10;100.00;100018.80;1740999;80;21066;-53
2022/07/29 00:23:30;;;;;;;1.40;0.60;;;;;;;15.13;100.00;100014.55;1742785;80;21440;-55
2022/07/29 00:25:56;;;;;;;0.85;0.60;;;;;;;15.17;100.00;100012.98;1740284;80;21260;-53
2022/07/29 00:28:23;;;;;;;1.87;0.70;;;;;;;15.17;100.00;100014.34;1701772;82;21001;-53
2022/07/29 00:30:50;;;;;;;1.55;0.80;;;;;;;15.17;100.00;100011.62;1742682;80;21323;-52
2022/07/29 00:33:17;;;;;;;0.80;0.60;;;;;;;15.17;100.00;100012.98;1707445;82;21054;-52
2022/07/29 00:35:44;;;;;;;0.70;0.70;;;;;;;15.13;100.00;100024.53;1701390;82;21263;-52
2022/07/29 00:38:16;;;;;;;3.25;0.70;;;;;;;15.11;100.00;100024.62;1740308;80;21182;-52
2022/07/29 00:40:44;;;;;;;2.15;0.65;;;;;;;15.10;100.00;100024.23;1742650;80;22108;-55
2022/07/29 00:43:13;;;;;;;1.22;0.60;;;;;;;15.09;100.00;100022.95;1742303;80;21109;-53
2022/07/29 00:45:42;;;;;;;0.80;0.60;;;;;;;15.03;100.00;100019.28;1742504;80;21002;-53
2022/07/29 00:48:08;;;;;;;1.00;0.60;;;;;;;14.95;100.00;100018.41;1740128;80;21176;-53
2022/07/29 00:50:35;;;;;;;1.35;0.60;;;;;;;14.89;100.00;100015.18;1736296;80;21547;-53
2022/07/29 00:53:03;;;;;;;1.00;0.60;;;;;;;14.84;100.00;100017.31;1739380;80;21088;-52
2022/07/29 00:55:30;;;;;;;0.90;0.68;;;;;;;14.81;100.00;100015.66;1741704;80;21465;-53
2022/07/29 00:57:57;;;;;;;1.47;0.80;;;;;;;14.78;100.00;100017.22;1742197;80;21006;-53
2022/07/29 01:00:25;;;;;;;0.72;0.70;;;;;;;14.75;100.00;100012.84;1737519;80;22198;-53
2022/07/29 01:02:51;;;;;;;3.22;0.70;;;;;;;14.73;100.00;100021.55;1743696;80;21103;-53
2022/07/29 01:05:20;;;;;;;1.20;0.70;;;;;;;14.73;100.00;100014.77;1742098;80;21468;-55
2022/07/29 01:07:51;;;;;;;1.80;0.70;;;;;;;14.70;100.00;100015.46;1740740;80;21113;-53
2022/07/29 01:10:18;;;;;;;0.93;0.60;;;;;;;14.64;100.00;100013.10;1740600;80;21038;-52
2022/07/29 01:12:47;;;;;;;0.85;0.50;;;;;;;14.57;100.00;100013.09;1743450;80;20997;-51
2022/07/29 01:15:14;;;;;;;2.67;0.50;;;;;;;14.52;100.00;100005.26;1724642;80;21082;-54
2022/07/29 01:18:01;;;;;;;1.05;0.72;;;;;;;14.52;100.00;100005.26;1718383;81;21113;-52
2022/07/29 01:20:37;;;;;;;0.60;0.50;;;;;;;14.54;100.00;100016.00;1648129;83;21053;-52
2022/07/29 01:23:28;;;;;;;0.80;0.60;;;;;;;14.56;100.00;100012.70;1685011;82;21137;-53
2022/07/29 01:26:07;;;;;;;0.80;0.57;;;;;;;14.58;100.00;100016.19;1687661;83;21997;-54
2022/07/29 01:29:02;;;;;;;1.70;0.80;;;;;;;14.58;100.00;100010.30;1630606;83;21100;-55
2022/07/29 01:31:49;;;;;;;1.50;0.70;;;;;;;14.58;100.00;100013.48;1669311;82;21077;-51
2022/07/29 01:34:33;;;;;;;0.90;0.60;;;;;;;14.57;100.00;100006.31;1682604;82;21210;-52
2022/07/29 01:37:05;;;;;;;0.95;0.60;;;;;;;14.52;100.00;100012.03;1712340;81;21054;-51
2022/07/29 01:39:35;;;;;;;1.77;0.60;;;;;;;14.45;100.00;100007.08;1719697;80;21381;-51
2022/07/29 01:42:21;;;;;;;2.85;0.50;;;;;;;14.33;100.00;100008.16;1682200;82;22242;-54
2022/07/29 01:44:57;;;;;;;0.90;0.50;;;;;;;14.24;100.00;100004.64;1724092;80;21054;-52
2022/07/29 01:47:25;;;;;;;;;;;;;;;14.15;100.00;100001.12;1727719;81;21515;-52
2022/07/29 01:49:54;;;;;;;1.65;0.60;;;;;;;14.13;100.00;100002.16;1718666;81;20532;-51
2022/07/29 01:52:29;;;;;;;1.17;0.60;;;;;;;14.09;100.00;99998.78;1717798;81;21151;-52
2022/07/29 01:54:58;;;;;;;0.90;0.60;;;;;;;14.12;100.00;100007.21;1719530;81;21050;-52
2022/07/29 01:57:29;;;;;;;0.80;0.60;;;;;;;14.16;100.00;100003.34;1720895;81;21436;-52
2022/07/29 01:59:57;;;;;;;2.42;0.68;;;;;;;14.16;100.00;100003.34;1723087;80;21050;-52
2022/07/29 02:02:24;;;;;;;1.75;0.60;;;;;;;14.17;100.00;100014.57;1698485;80;21126;-51
2022/07/29 02:04:50;;;;;;;2.25;0.57;;;;;;;14.15;100.00;100010.59;1725482;81;21398;-51
2022/07/29 02:07:20;;;;;;;1.02;0.60;;;;;;;14.16;100.00;100014.17;1715303;80;21116;-52
2022/07/29 02:09:49;;;;;;;1.20;0.55;;;;;;;14.16;100.00;100021.81;1726136;80;21405;-52
2022/07/29 02:12:18;;;;;;;2.22;0.50;;;;;;;14.15;100.00;100021.42;1709464;82;21598;-52
2022/07/29 02:14:49;;;;;;;2.17;0.50;;;;;;;14.11;100.00;100013.59;1732843;80;21368;-53
2022/07/29 02:17:20;;;;;;;1.80;0.50;;;;;;;14.04;100.00;100021.16;1743690;80;21059;-52
2022/07/29 02:19:47;;;;;;;3.02;0.50;;;;;;;13.99;100.00;100018.74;1739421;80;21393;-54
2022/07/29 02:22:14;;;;;;;0.68;0.50;;;;;;;13.96;100.00;100024.31;1737492;80;21070;-52
2022/07/29 02:24:42;;;;;;;2.90;0.60;;;;;;;13.90;100.00;100021.98;1739186;80;21472;-54
2022/07/29 02:27:09;;;;;;;1.42;0.70;;;;;;;13.90;100.00;100021.98;1734208;80;21299;-52
2022/07/29 02:29:37;;;;;;;0.80;0.53;;;;;;;13.91;100.00;100026.91;1738348;80;21113;-51
2022/07/29 02:32:04;;;;;;;2.37;0.60;;;;;;;13.86;100.00;100024.48;1740669;80;22230;-51
2022/07/29 02:34:32;;;;;;;2.47;0.60;;;;;;;13.84;100.00;100021.47;1740967;80;20994;-54
2022/07/29 02:36:59;;;;;;;0.80;0.60;;;;;;;13.78;100.00;100025.88;1742203;80;21078;-51
2022/07/29 02:39:26;;;;;;;0.62;0.50;;;;;;;13.78;100.00;100025.88;1741500;80;21054;-51
2022/07/29 02:41:55;;;;;;;1.67;0.50;;;;;;;13.78;100.00;100030.78;1740668;80;21111;-52
2022/07/29 02:44:24;;;;;;;0.80;0.47;;;;;;;13.77;100.00;100035.83;1740532;80;21256;-52
2022/07/29 02:46:58;;;;;;;1.57;0.55;;;;;;;13.77;100.00;100041.23;1740976;80;20883;-52
2022/07/29 02:49:38;;;;;;;0.80;0.50;;;;;;;13.79;100.00;100032.53;1741924;80;21061;-52
2022/07/29 02:52:27;;;;;;;0.55;0.47;;;;;;;13.82;100.00;100028.79;1741087;80;21347;-51
2022/07/29 02:55:06;;;;;;;1.57;0.60;;;;;;;13.87;100.00;100032.09;1741418;80;21268;-52
2022/07/29 02:57:36;;;;;;;0.68;0.50;;;;;;;13.91;100.00;100032.32;1742748;80;21413;-52
2022/07/29 03:00:08;;;;;;;0.70;0.57;;;;;;;13.91;100.00;100037.25;1705457;82;21058;-53
2022/07/29 03:02:45;;;;;;;4.40;0.60;;;;;;;13.86;100.00;100028.55;1689941;83;20970;-54
2022/07/29 03:05:17;;;;;;;0.70;0.55;;;;;;;13.83;100.00;100035.95;1686958;83;21044;-51
2022/07/29 03:07:47;;;;;;;0.90;0.47;;;;;;;13.83;100.00;100034.12;1662947;84;21038;-54
2022/07/29 03:10:14;;;;;;;0.53;0.40;;;;;;;13.86;100.00;100029.02;1687931;83;21012;-52
2022/07/29 03:12:41;;;;;;;1.32;0.50;;;;;;;13.88;100.00;100028.42;1703162;82;20963;-51
2022/07/29 03:15:08;;;;;;;0.62;0.50;;;;;;;13.94;100.00;100032.16;1734379;80;21008;-51
2022/07/29 03:17:35;;;;;;;1.05;0.60;;;;;;;13.96;100.00;100037.85;1726524;80;21091;-53
2022/07/29 03:20:02;;;;;;;1.22;0.60;;;;;;;13.96;100.00;100037.85;1726942;80;21595;-53
2022/07/29 03:22:29;;;;;;;2.05;0.50;;;;;;;13.96;100.00;100033.80;1725964;80;21072;-52
2022/07/29 03:24:56;;;;;;;2.22;0.50;;;;;;;14.01;100.00;100030.84;1694065;81;21555;-53
2022/07/29 03:27:23;;;;;;;0.65;0.42;;;;;;;14.16;100.00;100031.77;1693815;82;21444;-52
2022/07/29 03:29:49;;;;;;;1.10;0.60;;;;;;;14.16;100.00;100031.77;1693931;82;21563;-50
2022/07/29 03:32:16;;;;;;;1.10;0.50;;;;;;;14.23;100.00;100030.44;1691283;82;22011;-51
2022/07/29 03:34:43;;;;;;;2.67;0.60;;;;;;;14.31;100.00;100032.22;1684263;82;21551;-53
2022/07/29 03:37:09;;;;;;;1.55;0.60;;;;;;;14.34;100.00;100035.62;1686723;82;21549;-53
2022/07/29 03:39:40;;;;;;;1.27;0.50;;;;;;;14.34;100.00;100032.92;1688441;82;21460;-52
2022/07/29 03:42:07;;;;;;;1.05;0.50;;;;;;;14.33;100.00;100029.81;1654400;82;21104;-51
2022/07/29 03:44:35;;;;;;;1.17;0.45;;;;;;;14.34;100.00;100031.56;1690852;82;21583;-52
2022/07/29 03:47:01;;;;;;;3.52;0.50;;;;;;;14.38;100.00;100026.82;1688292;82;22204;-51
2022/07/29 03:49:28;;;;;;;0.90;0.40;;;;;;;14.47;100.00;100042.56;1686208;82;21079;-51
2022/07/29 03:51:54;;;;;;;3.33;0.50;;;;;;;14.59;100.00;100044.55;1684362;82;21152;-53
2022/07/29 03:54:22;;;;;;;3.27;0.50;;;;;;;14.82;100.00;100036.38;1685182;82;21148;-52
2022/07/29 03:56:50;;;;;;;1.30;0.50;;;;;;;14.82;100.00;100036.38;1684248;82;21843;-52
2022/07/29 03:59:16;;;;;;;0.50;0.50;;;;;;;14.96;100.00;100032.35;1684023;82;21164;-51
2022/07/29 04:01:43;;;;;;;2.72;0.53;;;;;;;15.09;100.00;100034.68;1683365;82;21090;-51
2022/07/29 04:04:11;;;;;;;1.67;0.45;;;;;;;15.20;100.00;100035.85;1684088;82;21180;-52
2022/07/29 04:06:42;;;;;;;2.08;0.50;;;;;;;15.30;100.00;100024.82;1689448;82;21084;-53
2022/07/29 04:09:09;;;;;;;1.45;0.50;;;;;;;15.40;100.00;100025.95;1687854;82;21121;-52
2022/07/29 04:11:36;;;;;;;1.15;0.57;;;;;;;15.52;100.00;100027.90;1687823;82;21072;-51
2022/07/29 04:14:03;;;;;;;1.95;0.45;;;;;;;15.63;100.00;100019.11;1679272;83;21148;-52
2022/07/29 04:16:30;;;;;;;1.87;0.50;;;;;;;15.75;100.00;100025.95;1717334;81;21102;-53
2022/07/29 04:18:57;;;;;;;1.12;0.60;;;;;;;15.87;100.00;100022.45;1716324;81;21116;-54
2022/07/29 04:21:23;;;;;;;0.70;0.50;;;;;;;16.01;100.00;100024.23;1720417;81;21138;-51
2022/07/29 04:23:50;;;;;;;3.77;0.80;;;;;;;16.16;100.00;100019.66;1720192;81;21089;-51
2022/07/29 04:26:17;;;;;;;2.60;0.70;;;;;;;16.30;100.00;100025.02;1717973;81;21479;-53
2022/07/29 04:28:44;;;;;;;1.35;0.50;;;;;;;16.46;100.00;100031.64;1715478;81;21082;-52
2022/07/29 04:31:11;;;;;;;3.10;0.70;;;;;;;16.60;100.00;100023.41;1714775;81;21036;-52
2022/07/29 04:33:38;;;;;;;1.92;0.50;;;;;;;16.75;100.00;100027.84;1716322;81;21497;-53
2022/07/29 04:36:05;;;;;;;0.80;0.50;;;;;;;16.90;100.00;100028.61;1713747;81;21112;-53
2022/07/29 04:38:32;;;;;;;0.68;0.33;;;;;;;17.05;100.00;100032.09;1730234;81;21053;-51
2022/07/29 04:40:58;;;;;;;2.05;0.45;;;;;;;17.20;100.00;100034.60;1717534;81;21818;-52
2022/07/29 04:43:25;;;;;;;0.78;0.40;;;;;;;17.35;100.00;100025.34;1722426;81;21069;-55
2022/07/29 04:45:51;;;;;;;1.65;0.33;;;;;;;17.53;100.00;100026.35;1717102;81;21616;-52
2022/07/29 04:48:19;;;;;;;1.65;0.33;;;;;;;17.70;100.00;100026.03;1717775;81;21057;-52
2022/07/29 04:50:47;;;;;;;3.12;0.30;;;;;;;17.86;100.00;100025.31;1717089;81;21422;-52
2022/07/29 04:53:13;;;;;;;1.95;0.30;;;;;;;18.03;100.00;100022.17;1709931;81;21559;-54
2022/07/29 04:55:41;;;;;;;6.35;0.57;;;;;;;18.19;100.00;100019.69;1721812;81;21077;-53
2022/07/29 04:58:07;;;;;;;3.25;0.50;;;;;;;18.34;100.00;100021.24;1721210;81;21009;-52
2022/07/29 05:00:34;;;;;;;1.02;0.30;;;;;;;18.49;100.00;100028.24;1723952;81;21062;-52
2022/07/29 05:03:00;;;;;;;2.52;0.30;;;;;;;18.61;100.00;100028.71;1695307;81;21060;-54
2022/07/29 05:05:28;;;;;;;1.02;0.30;;;;;;;18.75;100.00;100031.72;1722571;81;21503;-54
2022/07/29 05:07:55;;;;;;;3.40;0.37;;;;;;;18.88;100.00;100034.73;1721616;81;21037;-52
2022/07/29 05:10:21;;;;;;;0.98;0.30;;;;;;;19.02;100.00;100031.44;1717498;81;21238;-51
2022/07/29 05:12:49;;;;;;;0.57;0.30;;;;;;;19.14;100.00;100023.13;1719745;81;21101;-52
2022/07/29 05:15:17;;;;;;;2.05;0.30;;;;;;;19.28;100.00;100020.69;1729293;80;21102;-53
2022/07/29 05:17:45;;;;;;;0.68;0.40;;;;;;;19.42;100.00;100016.84;1745953;80;20991;-54
2022/07/29 05:20:12;;;;;;;2.25;0.60;;;;;;;19.54;100.00;100013.17;1740391;80;21078;-55
2022/07/29 05:22:40;;;;;;;38.20;1.10;;;;;;;19.67;100.00;100007.06;1737884;80;21331;-55
2022/07/29 05:25:09;;;;;;;1.30;0.50;;;;;;;19.80;100.00;100005.58;1742823;80;21102;-56
2022/07/29 05:27:36;;;;;;;1.15;0.78;;;;;;;19.92;100.00;100006.78;1742783;80;21141;-51
2022/07/29 05:30:05;;;;;;;2.80;0.50;;;;;;;20.03;100.00;100006.77;1735470;80;21128;-55
2022/07/29 05:32:31;;;;;;;1.50;0.30;;;;;;;20.14;100.00;100008.61;1736208;80;21073;-53
2022/07/29 05:34:59;;;;;;;4.35;0.40;;;;;;;20.27;100.00;100012.04;1739218;80;21038;-52
2022/07/29 05:37:27;;;;;;;1.32;0.30;;;;;;;20.37;100.00;100009.44;1741831;80;21093;-52
2022/07/29 05:39:53;;;;;;;0.47;0.30;;;;;;;20.48;100.00;100012.13;1743044;80;21055;-53
2022/07/29 05:42:20;;;;;;;0.40;0.20;;;;;;;20.60;100.00;100014.30;1743927;80;21075;-55
2022/07/29 05:44:47;;;;;;;0.57;0.30;;;;;;;20.69;100.00;100014.88;1742608;80;21046;-51
2022/07/29 05:47:13;;;;;;;11.35;0.50;;;;;;;20.79;100.00;100017.20;1742030;80;21783;-55
2022/07/29 05:49:40;;;;;;;2.25;0.30;;;;;;;20.90;100.00;100013.05;1739257;80;21027;-52
2022/07/29 05:52:08;;;;;;;1.55;0.30;;;;;;;21.00;100.00;100012.62;1742428;80;22201;-52
2022/07/29 05:54:35;;;;;;;1.45;0.30;;;;;;;21.09;100.00;100011.81;1741109;80;21467;-52
2022/07/29 05:57:02;;;;;;;1.92;0.20;;;;;;;21.18;100.00;100006.03;1744768;80;20999;-52
2022/07/29 05:59:33;;;;;;;1.02;0.30;;;;;;;21.28;100.00;100004.72;1744761;80;20912;-54
2022/07/29 06:02:00;;;;;;;1.65;0.30;;;;;;;21.38;100.00;100009.25;1745687;80;20917;-51
2022/07/29 06:04:27;;;;;;;3.77;0.30;;;;;;;21.47;100.00;100007.07;1743913;80;20907;-53
2022/07/29 06:06:55;;;;;;;3.15;0.20;;;;;;;21.59;100.00;100013.83;1740638;80;20987;-55
2022/07/29 06:09:23;;;;;;;6.87;0.40;;;;;;;21.69;100.00;100017.48;1743438;80;20899;-55
2022/07/29 06:11:49;;;;;;;1.62;0.40;;;;;;;21.77;100.00;100009.44;1741470;80;21040;-52
2022/07/29 06:14:17;;;;;;;2.37;0.35;;;;;;;21.86;100.00;100014.09;1744152;80;20887;-52
2022/07/29 06:16:43;;;;;;;3.05;0.40;;;;;;;21.95;100.00;100013.75;1728535;80;21448;-53
2022/07/29 06:19:10;;;;;;;1.17;0.40;;;;;;;22.03;100.00;100008.47;1720941;80;20961;-56
2022/07/29 06:21:43;;;;;;;1.30;0.20;;;;;;;22.12;100.00;100014.45;1688255;82;20950;-55
2022/07/29 06:24:12;;;;;;;2.17;0.40;;;;;;;22.19;100.00;100019.25;1688149;82;21378;-53
2022/07/29 06:26:40;;;;;;;2.02;0.35;;;;;;;22.29;100.00;100016.50;1688116;82;20958;-52
2022/07/29 06:29:10;;;;;;;4.95;0.40;;;;;;;22.37;100.00;100015.82;1688475;82;20907;-53
2022/07/29 06:31:37;;;;;;;7.80;0.70;;;;;;;22.46;100.00;100016.30;1682609;82;21566;-53
2022/07/29 06:34:04;;;;;;;7.47;0.37;;;;;;;22.54;100.00;100016.48;1684757;82;20958;-54
2022/07/29 06:36:30;;;;;;;4.17;0.40;;;;;;;22.62;100.00;100014.75;1687681;83;21808;-55
2022/07/29 06:38:56;;;;;;;4.97;0.30;;;;;;;22.70;100.00;100015.40;1721111;80;21097;-52
2022/07/29 06:41:24;;;;;;;4.78;0.50;;;;;;;22.75;100.00;100021.34;1718481;80;21111;-55
2022/07/29 06:43:52;;;;;;;0.75;0.37;;;;;;;22.82;100.00;100023.86;1720687;81;21137;-53
2022/07/29 06:46:19;;;;;;;3.98;0.40;;;;;;;22.88;100.00;100020.52;1717815;81;21948;-54
2022/07/29 06:48:47;;;;;;;2.05;0.40;;;;;;;22.96;100.00;100020.69;1718931;81;21151;-55
2022/07/29 06:51:14;;;;;;;5.35;0.40;;;;;;;23.03;100.00;100019.59;1716215;81;21041;-56
2022/07/29 06:53:41;;;;;;;0.90;0.40;;;;;;;23.08;100.00;100013.64;1717600;80;21537;-56
2022/07/29 06:56:12;;;;;;;4.10;0.40;;;;;;;23.13;100.00;100015.46;1720551;81;21420;-53
2022/07/29 06:58:39;;;;;;;4.12;0.40;;;;;;;23.17;100.00;100008.14;1719672;80;21542;-55
2022/07/29 07:01:07;;;;;;;2.20;0.30;;;;;;;23.22;100.00;100010.45;1720224;81;21533;-53
2022/07/29 07:03:34;;;;;;;1.30;0.33;;;;;;;23.27;100.00;100009.48;1719841;80;21703;-52
2022/07/29 07:06:00;;;;;;;2.25;0.40;;;;;;;23.31;100.00;100010.41;1719264;81;21053;-53
2022/07/29 07:08:27;;;;;;;0.80;0.30;;;;;;;23.39;100.00;100011.89;1721198;80;21054;-53
2022/07/29 07:10:54;;;;;;;1.05;0.30;;;;;;;23.46;100.00;100012.70;1720933;80;22329;-56
2022/07/29 07:13:23;;;;;;;1.17;0.40;;;;;;;23.55;100.00;100006.33;1716607;81;21027;-52
2022/07/29 07:15:51;;;;;;;0.88;0.28;;;;;;;23.62;100.00;100011.08;1725208;80;21406;-54
2022/07/29 07:18:20;;;;;;;2.70;0.40;;;;;;;23.69;100.00;100012.70;1740209;80;21038;-55
2022/07/29 07:20:47;;;;;;;3.85;0.40;;;;;;;23.75;100.00;100012.09;1744550;80;20951;-53
2022/07/29 07:23:13;;;;;;;0.70;0.30;;;;;;;23.82;100.00;100021.45;1705994;82;21136;-56
2022/07/29 07:25:40;;;;;;;1.05;0.40;;;;;;;23.89;100.00;100019.85;1745478;80;21092;-53
2022/07/29 07:28:07;;;;;;;1.42;0.30;;;;;;;23.93;100.00;100016.27;1743375;80;21091;-52
2022/07/29 07:30:33;;;;;;;1.50;0.30;;;;;;;23.95;100.00;100013.73;1746485;80;21045;-54
2022/07/29 07:33:00;;;;;;;0.70;0.30;;;;;;;24.00;100.00;100010.00;1744815;80;21579;-54
2022/07/29 07:35:27;;;;;;;0.65;0.40;;;;;;;24.03;100.00;100012.97;1742254;80;21125;-56
2022/07/29 07:37:55;;;;;;;1.50;0.40;;;;;;;24.03;100.00;100015.72;1741782;80;21131;-57
2022/07/29 07:40:22;;;;;;;1.55;0.30;;;;;;;24.05;100.00;100013.69;1739314;80;21464;-54
2022/07/29 07:42:49;;;;;;;0.65;0.35;;;;;;;24.10;100.00;100019.58;1742625;80;21112;-53
2022/07/29 07:45:15;;;;;;;0.50;0.30;;;;;;;24.17;100.00;100023.94;1740629;80;21074;-58
2022/07/29 07:47:42;;;;;;;1.65;0.47;;;;;;;24.22;100.00;100025.77;1738061;80;21532;-53
2022/07/29 07:50:10;;;;;;;2.55;0.33;;;;;;;24.29;100.00;100020.88;1707968;82;21884;-56
2022/07/29 07:52:53;;;;;;;3.12;0.50;;;;;;;24.38;100.00;100024.06;1742127;80;21621;-57
2022/07/29 07:55:20;;;;;;;4.70;0.42;;;;;;;24.45;100.00;100024.30;1735930;80;22596;-53
2022/07/29 07:57:47;;;;;;;2.67;0.40;;;;;;;24.50;100.00;100026.93;1740055;80;21523;-53
2022/07/29 08:00:14;;;;;;;2.83;0.40;;;;;;;24.53;100.00;100024.39;1735323;80;21095;-54
2022/07/29 08:02:45;;;;;;;1.57;0.30;;;;;;;24.57;100.00;100024.44;1740679;80;21057;-53
2022/07/29 08:05:16;;;;;;;3.37;0.40;;;;;;;24.60;100.00;100034.25;1740941;80;21158;-53
2022/07/29 08:07:44;;;;;;;2.65;0.37;;;;;;;24.60;100.00;100034.25;1744479;80;21055;-53
2022/07/29 08:10:13;;;;;;;1.42;0.47;;;;;;;24.60;100.00;100029.61;1741025;80;21094;-54
2022/07/29 08:12:39;;;;;;;1.40;0.30;;;;;;;24.59;100.00;100029.26;1741937;80;21020;-56
2022/07/29 08:15:08;;;;;;;3.80;0.50;;;;;;;24.61;100.00;100028.59;1742834;80;21402;-55
2022/07/29 08:17:35;;;;;;;1.57;0.40;;;;;;;24.69;100.00;100028.67;1711327;80;21079;-53
2022/07/29 08:20:02;;;;;;;0.72;0.30;;;;;;;24.79;100.00;100028.59;1712405;82;22245;-53
2022/07/29 08:22:30;;;;;;;0.95;0.30;;;;;;;24.88;100.00;100023.52;1689869;82;21491;-53
2022/07/29 08:24:58;;;;;;;0.72;0.37;;;;;;;24.97;100.00;100020.36;1692157;82;20954;-54
2022/07/29 08:29:57;;;;;;;0.68;0.40;;;;;;;25.05;100.00;100024.05;1787689;78;23334;-54
2022/07/29 08:32:25;;;;;;;3.05;0.35;;;;;;;25.02;100.00;100023.48;1776058;79;21404;-54
2022/07/29 08:34:51;;;;;;;1.15;0.40;;;;;;;25.06;100.00;100020.78;1776126;79;21405;-57
2022/07/29 08:37:18;;;;;;;2.62;0.40;;;;;;;25.13;100.00;100019.97;1739398;80;20942;-54
2022/07/29 08:39:45;;;;;;;0.55;0.35;;;;;;;25.22;100.00;100019.52;1716231;81;21373;-56
2022/07/29 08:42:11;;;;;;;1.32;0.30;;;;;;;25.31;100.00;100028.20;1718668;81;21260;-58
2022/07/29 08:44:38;;;;;;;2.35;0.40;;;;;;;25.39;100.00;100016.37;1739967;80;20985;-54
2022/07/29 08:47:05;;;;;;;0.65;0.30;;;;;;;25.49;100.00;100017.99;1750783;80;21452;-55
2022/07/29 08:49:35;;;;;;;0.72;0.35;;;;;;;25.53;100.00;100021.27;1745579;80;20982;-55
2022/07/29 08:52:02;;;;;;;3.15;0.37;;;;;;;25.56;100.00;100016.31;1744285;80;20931;-55
2022/07/29 08:54:29;;;;;;;4.40;0.40;;;;;;;25.57;100.00;100018.55;1712645;81;21895;-54
2022/07/29 08:56:56;;;;;;;1.40;0.30;;;;;;;25.58;100.00;100017.53;1719785;82;20982;-54
2022/07/29 08:59:26;;;;;;;0.90;0.40;;;;;;;25.61;100.00;100024.97;1699274;82;20971;-54
2022/07/29 09:01:53;;;;;;;0.60;0.30;;;;;;;25.62;100.00;100032.22;1695246;82;20985;-54
2022/07/29 09:04:20;;;;;;;3.52;0.45;;;;;;;25.65;100.00;100021.39;1700396;82;21411;-56
2022/07/29 09:06:51;;;;;;;2.62;0.42;;;;;;;25.71;100.00;100017.97;1698458;82;21069;-54
2022/07/29 09:09:17;;;;;;;2.95;0.40;;;;;;;25.77;100.00;100023.36;1698770;82;21490;-54
2022/07/29 09:11:44;;;;;;;1.50;0.40;;;;;;;25.81;100.00;100020.60;1699865;82;21129;-57
2022/07/29 09:14:13;;;;;;;1.37;0.40;;;;;;;25.85;100.00;100023.39;1701250;82;20918;-55
2022/07/29 09:16:53;;;;;;;2.42;0.40;;;;;;;25.89;100.00;100017.37;1700737;82;21342;-53
2022/07/29 09:19:25;;;;;;;0.65;0.40;;;;;;;25.93;100.00;100017.91;1683973;82;21053;-54
2022/07/29 09:21:59;;;;;;;0.57;0.30;;;;;;;25.98;100.00;100013.62;1698139;82;21069;-54
2022/07/29 09:24:42;;;;;;;2.60;0.40;;;;;;;25.98;100.00;100023.27;1697140;82;22160;-54
2022/07/29 09:27:20;;;;;;;1.22;0.30;;;;;;;25.97;100.00;100020.67;1696748;82;21516;-54
2022/07/29 09:30:05;;;;;;;1.10;0.33;;;;;;;25.97;100.00;100028.44;1680447;82;21105;-54
2022/07/29 09:32:33;;;;;;;3.50;0.50;;;;;;;26.00;100.00;100027.25;1684662;83;21110;-54
2022/07/29 09:35:20;;;;;;;1.77;0.40;;;;;;;26.01;100.00;100020.70;1683461;83;21045;-57
2022/07/29 09:37:47;;;;;;;2.87;0.40;;;;;;;26.02;100.00;100024.33;1683680;83;21476;-57
2022/07/29 09:40:19;;;;;;;0.50;0.30;;;;;;;26.02;100.00;100025.70;1691615;82;21418;-57
2022/07/29 09:42:46;;;;;;;0.33;0.30;;;;;;;26.02;100.00;100024.33;1691351;82;21003;-57
2022/07/29 09:45:15;;;;;;;1.72;0.50;;;;;;;26.02;100.00;100016.05;1688974;82;21135;-55
2022/07/29 09:47:47;;;;;;;0.55;0.40;;;;;;;26.01;100.00;100024.84;1686401;82;21032;-53
2022/07/29 09:50:15;;;;;;;0.70;0.30;;;;;;;25.97;100.00;100021.54;1692252;82;21233;-55
2022/07/29 09:52:51;;;;;;;1.85;0.42;;;;;;;25.93;100.00;100024.30;1692459;83;20962;-56
2022/07/29 09:55:18;;;;;;;1.47;0.40;;;;;;;25.89;100.00;100013.74;1690990;82;21153;-53
2022/07/29 09:57:45;;;;;;;0.75;0.40;;;;;;;25.87;100.00;100016.66;1689542;83;21112;-56
2022/07/29 10:00:18;;;;;;;1.05;0.40;;;;;;;25.92;100.00;100019.80;1692364;82;21141;-57
2022/07/29 10:02:46;;;;;;;1.15;0.40;;;;;;;25.99;100.00;100015.34;1691901;83;21058;-58
2022/07/29 10:05:21;;;;;;;1.92;0.40;;;;;;;26.08;100.00;100009.34;1690546;82;21082;-58
2022/07/29 10:07:55;;;;;;;0.98;0.40;;;;;;;26.20;100.00;100009.92;1687866;83;21072;-54
2022/07/29 10:10:30;;;;;;;0.80;0.40;;;;;;;26.30;100.00;99999.09;1690986;82;21065;-55
2022/07/29 10:13:12;;;;;;;0.90;0.40;;;;;;;26.38;100.00;100000.49;1689377;82;21108;-56
2022/07/29 10:15:43;;;;;;;6.08;0.40;;;;;;;26.48;100.00;99999.48;1690518;83;21331;-55
2022/07/29 10:18:11;;;;;;;2.58;0.45;;;;;;;26.54;100.00;100002.41;1691027;82;20919;-56
2022/07/29 10:20:39;;;;;;;0.82;0.40;;;;;;;26.54;100.00;100001.58;1692270;82;21382;-56
2022/07/29 10:23:06;;;;;;;3.62;0.75;;;;;;;26.44;100.00;99998.11;1689586;82;21093;-55
2022/07/29 10:25:34;;;;;;;0.80;0.40;;;;;;;26.36;100.00;99994.30;1691183;83;21499;-55
2022/07/29 10:28:00;;;;;;;1.15;0.50;;;;;;;26.36;100.00;99989.30;1663623;84;22410;-56
2022/07/29 10:30:27;;;;;;;6.42;0.42;;;;;;;26.38;100.00;99988.07;1730141;80;21147;-58
2022/07/29 10:33:26;;;;;;;0.60;0.40;;;;;;;26.41;100.00;99989.64;1731459;80;21157;-57
2022/07/29 10:36:20;;;;;;;1.02;0.30;;;;;;;26.41;100.00;99990.16;1730476;81;21051;-55
2022/07/29 10:39:21;;;;;;;0.72;0.37;;;;;;;26.42;100.00;99984.98;1729991;81;21320;-56
2022/07/29 10:42:24;;;;;;;2.50;0.50;;;;;;;26.38;100.00;99984.45;1696783;82;21297;-55
2022/07/29 10:44:51;;;;;;;1.37;0.40;;;;;;;26.32;100.00;99979.09;1730047;80;21391;-56
2022/07/29 10:47:24;;;;;;;0.70;0.40;;;;;;;26.28;100.00;99976.34;1733655;81;21344;-54
2022/07/29 10:50:05;;;;;;;2.65;0.50;;;;;;;26.28;100.00;99976.34;1732851;80;21022;-57
2022/07/29 10:52:58;;;;;;;1.45;0.40;;;;;;;26.29;100.00;99973.91;1730958;81;21218;-56
2022/07/29 10:55:39;;;;;;;1.98;0.45;;;;;;;26.30;100.00;99977.53;1732339;80;21975;-54
2022/07/29 10:58:25;;;;;;;2.25;0.40;;;;;;;26.29;100.00;99975.80;1732784;80;21065;-55
2022/07/29 11:00:54;;;;;;;1.22;0.40;;;;;;;26.29;100.00;99978.56;1734930;80;21065;-58
2022/07/29 11:03:47;;;;;;;0.82;0.50;;;;;;;26.25;100.00;99980.78;1733406;81;21530;-57
2022/07/29 11:06:13;;;;;;;3.15;0.68;;;;;;;26.19;100.00;99987.49;1737189;81;20938;-55
2022/07/29 11:08:41;;;;;;;1.65;0.40;;;;;;;26.13;100.00;99981.25;1730029;80;21237;-54
2022/07/29 11:11:23;;;;;;;2.27;0.40;;;;;;;26.12;100.00;99979.52;1730517;81;21077;-55
2022/07/29 11:13:53;;;;;;;1.25;0.42;;;;;;;26.10;100.00;99975.57;1733775;81;20975;-54
2022/07/29 11:16:25;;;;;;;0.75;0.40;;;;;;;26.12;100.00;99979.52;1735545;80;21050;-57
2022/07/29 11:19:14;;;;;;;0.78;0.47;;;;;;;26.12;100.00;99982.27;1730815;80;21598;-55
2022/07/29 11:21:43;;;;;;;0.42;0.30;;;;;;;26.14;100.00;99981.59;1736945;80;21070;-53
2022/07/29 11:24:20;;;;;;;6.62;0.45;;;;;;;26.16;100.00;99976.27;1733242;80;21092;-54
2022/07/29 11:27:11;;;;;;;0.65;0.30;;;;;;;26.18;100.00;99976.97;1734938;81;21081;-54
2022/07/29 11:29:51;;;;;;;1.85;0.40;;;;;;;26.20;100.00;99969.91;1736278;80;21519;-56
2022/07/29 11:32:20;;;;;;;0.62;0.30;;;;;;;26.20;100.00;99963.84;1741256;80;21496;-54
2022/07/29 11:34:48;;;;;;;0.65;0.40;;;;;;;26.24;100.00;99960.25;1742287;80;22467;-55